createdAt,value
2022-09-16T00:00:58.712Z,18.44
2022-09-16T00:03:26.203Z,18.40
2022-09-16T00:05:54.207Z,18.38
2022-09-16T00:08:22.216Z,18.35
2022-09-16T00:10:50.309Z,18.33
2022-09-16T00:13:18.053Z,18.30
2022-09-16T00:15:49.117Z,18.28
2022-09-16T00:18:16.451Z,18.25
2022-09-16T00:20:48.927Z,18.23
2022-09-16T00:23:16.822Z,18.17
2022-09-16T00:25:44.085Z,18.16
2022-09-16T00:28:11.318Z,18.15
2022-09-16T00:30:38.577Z,18.11
2022-09-16T00:33:05.934Z,18.11
2022-09-16T00:35:33.580Z,18.08
2022-09-16T00:38:01.093Z,18.08
2022-09-16T00:40:28.888Z,18.05
2022-09-16T00:42:56.263Z,18.02
2022-09-16T00:45:25.510Z,18.00
2022-09-16T00:47:58.242Z,17.99
2022-09-16T00:50:42.217Z,17.97
2022-09-16T00:53:13.535Z,17.95
2022-09-16T00:55:41.026Z,17.95
2022-09-16T00:58:26.562Z,17.94
2022-09-16T01:00:53.885Z,17.94
2022-09-16T01:03:21.289Z,17.97
2022-09-16T01:05:51.795Z,17.99
2022-09-16T01:08:19.102Z,17.98
2022-09-16T01:10:46.420Z,17.97
2022-09-16T01:13:15.860Z,17.95
2022-09-16T01:15:48.659Z,17.96
2022-09-16T01:18:49.175Z,17.97
2022-09-16T01:21:27.410Z,17.96
2022-09-16T01:24:10.966Z,17.93
2022-09-16T01:26:49.508Z,17.92
2022-09-16T01:29:38.153Z,17.87
2022-09-16T01:32:30.018Z,17.87
2022-09-16T01:35:22.506Z,17.83
2022-09-16T01:37:58.655Z,17.82
2022-09-16T01:40:25.900Z,17.80
2022-09-16T01:43:30.703Z,17.77
2022-09-16T01:46:04.819Z,17.76
2022-09-16T01:48:38.659Z,17.76
2022-09-16T01:51:11.907Z,17.77
2022-09-16T01:53:42.607Z,17.76
2022-09-16T01:56:24.201Z,17.77
2022-09-16T01:58:54.288Z,17.77
2022-09-16T02:01:32.899Z,17.74
2022-09-16T02:04:03.660Z,17.72
2022-09-16T02:06:31.744Z,17.71
2022-09-16T02:09:04.687Z,17.71
2022-09-16T02:11:32.190Z,17.71
2022-09-16T02:14:06.920Z,17.70
2022-09-16T02:16:39.563Z,17.69
2022-09-16T02:19:11.267Z,17.67
2022-09-16T02:21:45.483Z,17.67
2022-09-16T02:24:18.347Z,17.71
2022-09-16T02:26:50.776Z,17.76
2022-09-16T02:29:22.580Z,17.81
2022-09-16T02:31:55.702Z,17.85
2022-09-16T02:34:27.111Z,17.87
2022-09-16T02:36:59.695Z,17.88
2022-09-16T02:39:33.870Z,17.90
2022-09-16T02:42:01.739Z,17.91
2022-09-16T02:44:30.265Z,17.92
2022-09-16T02:47:17.574Z,17.95
2022-09-16T02:50:08.096Z,17.98
2022-09-16T02:52:57.573Z,18.02
2022-09-16T02:55:39.114Z,18.03
2022-09-16T02:58:07.057Z,18.03
2022-09-16T03:00:38.917Z,18.02
2022-09-16T03:03:06.190Z,17.95
2022-09-16T03:05:34.228Z,17.88
2022-09-16T03:08:06.998Z,17.85
2022-09-16T03:10:40.505Z,17.85
2022-09-16T03:13:32.340Z,17.86
2022-09-16T03:16:12.157Z,17.86
2022-09-16T03:18:46.250Z,17.84
2022-09-16T03:21:25.114Z,17.82
2022-09-16T03:24:07.495Z,17.80
2022-09-16T03:26:37.497Z,17.78
2022-09-16T03:29:22.979Z,17.79
2022-09-16T03:32:03.359Z,17.77
2022-09-16T03:34:34.318Z,17.76
2022-09-16T03:37:08.209Z,17.77
2022-09-16T03:39:57.757Z,17.77
2022-09-16T03:42:25.494Z,17.79
2022-09-16T03:44:52.777Z,17.79
2022-09-16T03:47:20.159Z,17.81
2022-09-16T03:49:47.566Z,17.86
2022-09-16T03:52:14.850Z,17.86
2022-09-16T03:54:42.040Z,17.93
2022-09-16T03:57:10.388Z,18.05
2022-09-16T03:59:37.694Z,18.45
2022-09-16T04:02:05.245Z,19.16
2022-09-16T04:04:32.727Z,19.96
2022-09-16T04:07:00.321Z,20.52
2022-09-16T04:09:27.565Z,21.24
2022-09-16T04:11:54.824Z,22.10
2022-09-16T04:14:22.877Z,22.48
2022-09-16T04:16:50.389Z,22.98
2022-09-16T04:19:17.675Z,23.36
2022-09-16T04:21:44.913Z,23.87
2022-09-16T04:24:13.579Z,24.18
2022-09-16T04:26:41.947Z,24.54
2022-09-16T04:29:09.773Z,24.52
2022-09-16T04:31:37.215Z,24.41
2022-09-16T04:34:05.470Z,24.39
2022-09-16T04:36:33.632Z,24.50
2022-09-16T04:39:00.824Z,24.73
2022-09-16T04:41:28.288Z,24.84
2022-09-16T04:43:57.413Z,25.05
2022-09-16T04:46:26.495Z,25.44
2022-09-16T04:48:54.841Z,25.59
2022-09-16T04:51:22.860Z,26.35
2022-09-16T04:53:52.262Z,26.82
2022-09-16T04:56:21.472Z,26.95
2022-09-16T04:58:51.400Z,27.33
2022-09-16T05:01:20.960Z,27.70
2022-09-16T05:03:50.666Z,27.43
2022-09-16T05:06:20.950Z,26.47
2022-09-16T05:08:49.264Z,25.35
2022-09-16T05:11:19.412Z,24.44
2022-09-16T05:13:47.746Z,23.89
2022-09-16T05:16:19.712Z,23.55
2022-09-16T05:18:48.855Z,23.58
2022-09-16T05:21:19.245Z,24.70
2022-09-16T05:23:47.440Z,25.85
2022-09-16T05:26:20.205Z,27.02
2022-09-16T05:28:48.073Z,28.14
2022-09-16T05:31:27.053Z,28.90
2022-09-16T05:36:50.832Z,29.93
2022-09-16T05:39:25.804Z,30.68
2022-09-16T05:42:04.745Z,30.42
2022-09-16T05:44:32.403Z,29.15
2022-09-16T05:46:59.748Z,28.80
2022-09-16T05:49:27.054Z,28.95
2022-09-16T05:51:55.402Z,28.64
2022-09-16T05:54:25.331Z,27.76
2022-09-16T05:56:53.390Z,26.92
2022-09-16T05:59:21.232Z,26.13
2022-09-16T06:01:48.793Z,25.64
2022-09-16T06:04:16.822Z,25.53
2022-09-16T06:06:47.278Z,25.47
2022-09-16T06:09:21.719Z,25.31
2022-09-16T06:12:01.881Z,25.29
2022-09-16T06:14:31.236Z,25.42
2022-09-16T06:16:59.514Z,25.57
2022-09-16T06:19:26.931Z,25.65
2022-09-16T06:21:54.270Z,25.74
2022-09-16T06:24:23.128Z,25.74
2022-09-16T06:26:50.559Z,25.68
2022-09-16T06:29:18.242Z,25.67
2022-09-16T06:31:45.695Z,25.79
2022-09-16T06:34:15.453Z,25.96
2022-09-16T06:36:44.971Z,26.12
2022-09-16T06:39:13.914Z,26.23
2022-09-16T06:41:41.313Z,26.36
2022-09-16T06:44:08.753Z,26.34
2022-09-16T06:46:36.670Z,26.33
2022-09-16T06:49:05.994Z,26.50
2022-09-16T06:51:34.415Z,26.45
2022-09-16T06:54:04.420Z,26.38
2022-09-16T06:56:32.008Z,26.26
2022-09-16T06:58:59.828Z,26.12
2022-09-16T07:01:29.657Z,25.98
2022-09-16T07:03:58.482Z,25.93
2022-09-16T07:06:57.412Z,25.78
2022-09-16T07:09:17.311Z,25.60
2022-09-16T07:11:45.407Z,25.34
2022-09-16T07:14:12.980Z,25.18
2022-09-16T07:16:42.576Z,24.92
2022-09-16T07:19:10.029Z,24.64
2022-09-16T07:21:38.339Z,24.53
2022-09-16T07:24:07.835Z,24.49
2022-09-16T07:26:37.783Z,24.46
2022-09-16T07:29:06.773Z,24.57
2022-09-16T07:31:37.449Z,24.86
2022-09-16T07:34:06.529Z,25.20
2022-09-16T07:36:42.563Z,25.52
2022-09-16T07:39:10.618Z,25.81
2022-09-16T07:41:40.267Z,26.08
2022-09-16T07:44:10.785Z,26.44
2022-09-16T07:46:38.672Z,26.53
2022-09-16T07:49:08.896Z,26.62
2022-09-16T07:51:36.877Z,26.61
2022-09-16T07:54:06.571Z,26.56
2022-09-16T07:56:36.995Z,26.41
2022-09-16T07:59:05.986Z,26.27
2022-09-16T08:01:34.566Z,26.28
2022-09-16T08:04:03.075Z,26.25
2022-09-16T08:06:32.323Z,26.27
2022-09-16T08:09:21.030Z,26.31
2022-09-16T08:11:49.168Z,26.30
2022-09-16T08:14:16.795Z,26.23
2022-09-16T08:16:45.183Z,26.19
2022-09-16T08:19:13.097Z,26.26
2022-09-16T08:21:40.408Z,26.38
2022-09-16T08:24:07.669Z,26.56
2022-09-16T08:26:35.117Z,26.68
2022-09-16T08:29:08.754Z,26.79
2022-09-16T08:31:38.461Z,26.92
2022-09-16T08:34:06.284Z,27.22
2022-09-16T08:36:33.966Z,27.51
2022-09-16T08:39:01.683Z,27.68
2022-09-16T08:42:11.976Z,27.91
2022-09-16T08:44:46.711Z,27.90
2022-09-16T08:47:21.151Z,27.97
2022-09-16T08:49:53.265Z,28.06
2022-09-16T08:52:42.675Z,28.02
2022-09-16T08:55:19.522Z,27.87
2022-09-16T08:58:11.625Z,27.76
2022-09-16T09:00:40.855Z,27.59
2022-09-16T09:03:22.065Z,27.38
2022-09-16T09:05:52.375Z,27.14
2022-09-16T09:08:33.154Z,26.92
2022-09-16T09:11:39.227Z,26.72
2022-09-16T09:14:18.513Z,26.70
2022-09-16T09:17:07.823Z,26.66
2022-09-16T09:20:06.867Z,26.68
2022-09-16T09:22:55.849Z,26.65
2022-09-16T09:25:31.960Z,26.55
2022-09-16T09:28:02.431Z,26.50
2022-09-16T09:30:30.771Z,26.40
2022-09-16T09:33:04.173Z,26.29
2022-09-16T09:35:50.495Z,26.28
2022-09-16T09:38:33.064Z,26.38
2022-09-16T09:41:09.474Z,26.50
2022-09-16T09:43:54.645Z,26.54
2022-09-16T09:46:26.566Z,26.51
2022-09-16T09:49:08.289Z,26.43
2022-09-16T09:51:55.022Z,26.33
2022-09-16T09:54:28.196Z,26.20
2022-09-16T09:57:00.219Z,26.11
2022-09-16T09:59:33.552Z,26.08
2022-09-16T10:02:01.972Z,26.05
2022-09-16T10:04:37.759Z,26.01
2022-09-16T10:07:05.877Z,25.96
2022-09-16T10:09:34.727Z,25.97
2022-09-16T10:12:02.593Z,26.03
2022-09-16T10:14:35.812Z,26.15
2022-09-16T10:17:05.367Z,26.25
2022-09-16T10:19:40.526Z,26.31
2022-09-16T10:22:19.652Z,26.39
2022-09-16T10:24:57.173Z,26.45
2022-09-16T10:27:31.633Z,26.50
2022-09-16T10:30:08.585Z,26.64
2022-09-16T10:33:03.965Z,26.93
2022-09-16T10:35:39.388Z,27.26
2022-09-16T10:38:09.876Z,27.50
2022-09-16T10:40:37.694Z,27.77
2022-09-16T10:43:08.006Z,28.08
2022-09-16T10:45:48.243Z,28.27
2022-09-16T10:48:21.962Z,28.48
2022-09-16T10:51:30.600Z,28.72
2022-09-16T10:54:00.422Z,28.88
2022-09-16T10:56:30.708Z,28.96
2022-09-16T10:59:12.322Z,28.97
2022-09-16T11:01:59.121Z,28.80
2022-09-16T11:04:57.434Z,28.44
2022-09-16T11:07:24.799Z,27.87
2022-09-16T11:10:12.534Z,27.30
2022-09-16T11:12:55.446Z,26.89
2022-09-16T11:15:25.462Z,26.57
2022-09-16T11:18:04.979Z,26.37
2022-09-16T11:20:40.168Z,26.30
2022-09-16T11:23:20.152Z,26.17
2022-09-16T11:25:50.707Z,26.13
2022-09-16T11:28:40.024Z,26.04
2022-09-16T11:31:33.966Z,25.77
2022-09-16T11:34:01.499Z,25.61
2022-09-16T11:36:34.702Z,25.37
2022-09-16T11:39:14.008Z,25.19
2022-09-16T11:41:59.789Z,25.00
2022-09-16T11:44:42.054Z,24.96
2022-09-16T11:47:12.679Z,25.00
2022-09-16T11:49:53.027Z,25.03
2022-09-16T11:52:29.480Z,25.05
2022-09-16T11:55:22.519Z,24.89
2022-09-16T11:57:57.218Z,24.78
2022-09-16T12:00:24.561Z,24.67
2022-09-16T12:02:51.844Z,24.46
2022-09-16T12:05:28.350Z,24.30
2022-09-16T12:08:05.494Z,24.27
2022-09-16T12:10:38.560Z,24.26
2022-09-16T12:13:11.826Z,24.20
2022-09-16T12:15:49.938Z,24.18
2022-09-16T12:18:27.646Z,24.26
2022-09-16T12:21:09.349Z,24.41
2022-09-16T12:23:42.031Z,24.59
2022-09-16T12:26:20.114Z,24.64
2022-09-16T12:29:12.302Z,24.61
2022-09-16T12:31:46.297Z,24.55
2022-09-16T12:34:39.856Z,24.60
2022-09-16T12:37:10.263Z,24.76
2022-09-16T12:39:38.563Z,24.82
2022-09-16T12:42:09.547Z,24.86
2022-09-16T12:45:13.016Z,24.90
2022-09-16T12:48:03.022Z,24.91
2022-09-16T12:51:00.706Z,24.83
2022-09-16T12:53:30.731Z,24.73
2022-09-16T12:56:19.459Z,24.66
2022-09-16T12:58:52.467Z,24.61
2022-09-16T13:01:33.645Z,24.60
2022-09-16T13:04:12.813Z,24.56
2022-09-16T13:06:47.044Z,24.45
2022-09-16T13:09:33.092Z,24.32
2022-09-16T13:15:01.824Z,24.04
2022-09-16T13:17:39.849Z,24.01
2022-09-16T13:20:22.100Z,24.08
2022-09-16T13:22:57.864Z,24.08
2022-09-16T13:25:28.612Z,24.02
2022-09-16T13:28:01.874Z,23.95
2022-09-16T13:30:35.155Z,23.86
2022-09-16T13:33:11.896Z,23.72
2022-09-16T13:35:44.705Z,23.60
2022-09-16T13:38:15.059Z,23.56
2022-09-16T13:40:57.050Z,23.58
2022-09-16T13:43:42.510Z,23.63
2022-09-16T13:46:16.067Z,23.62
2022-09-16T13:48:55.368Z,23.59
2022-09-16T13:51:22.977Z,23.53
2022-09-16T13:53:51.776Z,23.48
2022-09-16T13:56:51.427Z,23.43
2022-09-16T13:59:38.809Z,23.40
2022-09-16T14:02:18.593Z,23.48
2022-09-16T14:05:10.364Z,23.48
2022-09-16T14:08:03.431Z,23.41
2022-09-16T14:10:43.643Z,23.37
2022-09-16T14:13:17.549Z,23.33
2022-09-16T14:15:50.637Z,23.28
2022-09-16T14:18:20.917Z,23.31
2022-09-16T14:21:03.558Z,23.20
2022-09-16T14:23:32.629Z,23.14
2022-09-16T14:26:12.341Z,23.09
2022-09-16T14:28:40.295Z,23.00
2022-09-16T14:31:29.415Z,22.86
2022-09-16T14:34:02.012Z,22.76
2022-09-16T14:36:33.074Z,22.71
2022-09-16T14:39:03.272Z,22.78
2022-09-16T14:41:33.079Z,22.70
2022-09-16T14:44:10.091Z,22.67
2022-09-16T14:46:46.828Z,22.63
2022-09-16T14:49:15.046Z,22.53
2022-09-16T14:51:50.085Z,22.47
2022-09-16T14:54:22.184Z,22.41
2022-09-16T14:57:05.893Z,22.32
2022-09-16T14:59:38.995Z,22.28
2022-09-16T15:02:36.705Z,22.20
2022-09-16T15:05:18.869Z,22.13
2022-09-16T15:08:12.301Z,22.06
2022-09-16T15:10:51.661Z,21.98
2022-09-16T15:13:23.178Z,21.93
2022-09-16T15:16:20.416Z,21.87
2022-09-16T15:19:00.758Z,21.83
2022-09-16T15:21:35.861Z,21.79
2022-09-16T15:24:04.354Z,21.75
2022-09-16T15:26:40.534Z,21.72
2022-09-16T15:29:17.600Z,21.70
2022-09-16T15:31:47.193Z,21.65
2022-09-16T15:34:21.405Z,21.58
2022-09-16T15:36:56.489Z,21.52
2022-09-16T15:39:33.608Z,21.38
2022-09-16T15:42:33.440Z,21.17
2022-09-16T15:45:01.861Z,21.06
2022-09-16T15:47:39.513Z,20.99
2022-09-16T15:50:12.414Z,20.93
2022-09-16T15:53:24.625Z,20.90
2022-09-16T15:55:53.397Z,20.86
2022-09-16T15:58:23.941Z,20.83
2022-09-16T16:01:07.109Z,20.79
2022-09-16T16:03:52.329Z,20.74
2022-09-16T16:06:19.890Z,20.67
2022-09-16T16:08:51.908Z,20.65
2022-09-16T16:11:20.942Z,20.66
2022-09-16T16:13:51.364Z,20.66
2022-09-16T16:16:22.696Z,20.66
2022-09-16T16:18:52.873Z,20.62
2022-09-16T16:21:21.281Z,20.56
2022-09-16T16:23:51.392Z,20.50
2022-09-16T16:26:18.717Z,20.46
2022-09-16T16:28:46.142Z,20.44
2022-09-16T16:31:18.494Z,20.42
2022-09-16T16:33:48.109Z,20.37
2022-09-16T16:36:17.169Z,20.36
2022-09-16T16:38:45.650Z,20.30
2022-09-16T16:41:24.303Z,20.28
2022-09-16T16:43:51.736Z,20.25
2022-09-16T16:46:24.580Z,20.21
2022-09-16T16:48:55.345Z,20.09
2022-09-16T16:51:22.666Z,19.94
2022-09-16T16:53:50.104Z,19.77
2022-09-16T16:56:27.493Z,19.63
2022-09-16T16:58:54.913Z,19.55
2022-09-16T17:01:27.739Z,19.44
2022-09-16T17:03:55.289Z,19.39
2022-09-16T17:06:22.632Z,19.31
2022-09-16T17:08:57.298Z,19.24
2022-09-16T17:11:26.064Z,19.15
2022-09-16T17:14:05.363Z,19.10
2022-09-16T17:16:36.061Z,19.05
2022-09-16T17:19:04.019Z,19.01
2022-09-16T17:21:34.149Z,18.96
2022-09-16T17:24:05.909Z,18.94
2022-09-16T17:26:34.693Z,18.88
2022-09-16T17:29:14.978Z,18.83
2022-09-16T17:31:45.161Z,18.76
2022-09-16T17:34:18.332Z,18.69
2022-09-16T17:36:46.671Z,18.66
2022-09-16T17:39:21.271Z,18.62
2022-09-16T17:41:49.715Z,18.57
2022-09-16T17:44:20.332Z,18.55
2022-09-16T17:46:47.832Z,18.48
2022-09-16T17:49:21.646Z,18.44
2022-09-16T17:51:53.435Z,18.39
2022-09-16T17:54:21.256Z,18.32
2022-09-16T17:56:50.194Z,18.29
2022-09-16T17:59:18.721Z,18.25
2022-09-16T18:01:46.506Z,18.23
2022-09-16T18:04:13.869Z,18.20
2022-09-16T18:06:45.570Z,18.17
2022-09-16T18:09:18.980Z,18.19
2022-09-16T18:11:47.114Z,18.15
2022-09-16T18:14:14.808Z,18.14
2022-09-16T18:16:42.679Z,18.15
2022-09-16T18:19:11.403Z,18.12
2022-09-16T18:21:38.874Z,18.10
2022-09-16T18:24:11.253Z,18.08
2022-09-16T18:26:42.180Z,18.03
2022-09-16T18:29:13.743Z,18.01
2022-09-16T18:31:48.190Z,17.98
2022-09-16T18:34:16.885Z,17.96
2022-09-16T18:36:47.027Z,17.93
2022-09-16T18:39:16.588Z,17.86
2022-09-16T18:41:48.474Z,17.82
2022-09-16T18:44:19.723Z,17.83
2022-09-16T18:46:48.366Z,17.90
2022-09-16T18:49:16.705Z,17.92
2022-09-16T18:51:51.408Z,17.91
2022-09-16T18:54:30.471Z,17.88
2022-09-16T18:57:01.281Z,17.85
2022-09-16T18:59:30.614Z,17.83
2022-09-16T19:01:59.991Z,17.80
2022-09-16T19:04:30.028Z,17.78
2022-09-16T19:07:06.110Z,17.74
2022-09-16T19:09:38.440Z,17.71
2022-09-16T19:12:13.304Z,17.68
2022-09-16T19:14:56.676Z,17.65
2022-09-16T19:17:37.873Z,17.62
2022-09-16T19:20:35.471Z,17.61
2022-09-16T19:23:15.883Z,17.58
2022-09-16T19:25:44.632Z,17.56
2022-09-16T19:28:12.136Z,17.54
2022-09-16T19:30:40.873Z,17.54
2022-09-16T19:33:08.156Z,17.51
2022-09-16T19:35:36.526Z,17.47
2022-09-16T19:38:04.351Z,17.44
2022-09-16T19:40:32.096Z,17.43
2022-09-16T19:42:59.832Z,17.38
2022-09-16T19:45:27.965Z,17.32
2022-09-16T19:47:55.301Z,17.30
2022-09-16T19:50:22.890Z,17.29
2022-09-16T19:52:50.417Z,17.29
2022-09-16T19:55:17.677Z,17.28
2022-09-16T19:57:44.912Z,17.32
2022-09-16T20:00:15.485Z,17.34
2022-09-16T20:02:44.992Z,17.33
2022-09-16T20:05:13.336Z,17.31
2022-09-16T20:07:43.382Z,17.35
2022-09-16T20:10:10.893Z,17.34
2022-09-16T20:12:42.137Z,17.36
2022-09-16T20:15:09.726Z,17.41
2022-09-16T20:17:39.687Z,17.40
2022-09-16T20:20:10.344Z,17.43
2022-09-16T20:22:47.525Z,17.43
2022-09-16T20:25:23.053Z,17.44
2022-09-16T20:27:52.236Z,17.41
2022-09-16T20:30:21.398Z,17.40
2022-09-16T20:32:57.725Z,17.38
2022-09-16T20:35:25.201Z,17.38
2022-09-16T20:37:52.408Z,17.38
2022-09-16T20:40:19.875Z,17.34
2022-09-16T20:42:50.809Z,17.36
2022-09-16T20:45:18.016Z,17.34
2022-09-16T20:47:45.917Z,17.30
2022-09-16T20:50:13.338Z,17.29
2022-09-16T20:52:49.707Z,17.22
2022-09-16T20:55:17.162Z,17.14
2022-09-16T20:57:49.322Z,17.14
2022-09-16T21:00:16.842Z,17.13
2022-09-16T21:02:44.217Z,17.09
2022-09-16T21:05:14.765Z,17.06
2022-09-16T21:07:44.060Z,16.98
2022-09-16T21:10:13.313Z,16.99
2022-09-16T21:12:41.491Z,17.02
2022-09-16T21:15:09.106Z,17.00
2022-09-16T21:17:41.627Z,16.99
2022-09-16T21:20:11.474Z,16.98
2022-09-16T21:22:38.990Z,16.95
2022-09-16T21:25:10.097Z,16.93
2022-09-16T21:27:38.146Z,16.94
2022-09-16T21:30:05.966Z,16.91
2022-09-16T21:32:34.360Z,16.88
2022-09-16T21:35:01.638Z,16.84
2022-09-16T21:37:29.372Z,16.84
2022-09-16T21:39:57.020Z,16.85
2022-09-16T21:42:24.405Z,16.86
2022-09-16T21:44:52.189Z,16.80
2022-09-16T21:47:19.770Z,16.85
2022-09-16T21:49:50.813Z,16.86
2022-09-16T21:52:18.474Z,16.86
2022-09-16T21:54:46.061Z,16.83
2022-09-16T21:57:14.519Z,16.75
2022-09-16T21:59:41.755Z,16.74
2022-09-16T22:02:12.502Z,16.70
2022-09-16T22:04:40.341Z,16.71
2022-09-16T22:07:12.466Z,16.69
2022-09-16T22:09:39.829Z,16.57
2022-09-16T22:12:09.337Z,16.43
2022-09-16T22:14:36.770Z,16.32
2022-09-16T22:17:04.002Z,16.23
2022-09-16T22:19:31.607Z,16.12
2022-09-16T22:21:58.839Z,16.05
2022-09-16T22:24:27.239Z,15.95
2022-09-16T22:26:54.533Z,15.89
2022-09-16T22:29:21.749Z,15.82
2022-09-16T22:31:49.143Z,15.76
2022-09-16T22:34:16.701Z,15.74
2022-09-16T22:36:45.175Z,15.68
2022-09-16T22:39:15.477Z,15.66
2022-09-16T22:41:42.960Z,15.63
2022-09-16T22:44:10.380Z,15.60
2022-09-16T22:46:46.403Z,15.68
2022-09-16T22:49:15.185Z,15.74
2022-09-16T22:51:42.585Z,15.76
2022-09-16T22:54:11.505Z,15.76
2022-09-16T22:56:38.787Z,15.76
2022-09-16T22:59:06.778Z,15.74
2022-09-16T23:01:40.324Z,15.68
2022-09-16T23:04:09.331Z,15.68
2022-09-16T23:06:38.691Z,15.68
2022-09-16T23:09:07.603Z,15.63
2022-09-16T23:11:35.935Z,15.55
2022-09-16T23:14:06.552Z,15.48
2022-09-16T23:16:36.377Z,15.42
2022-09-16T23:19:06.211Z,15.36
2022-09-16T23:21:33.769Z,15.27
2022-09-16T23:24:02.550Z,15.25
2022-09-16T23:26:32.212Z,15.21
2022-09-16T23:29:06.798Z,15.23
2022-09-16T23:31:38.311Z,15.23
2022-09-16T23:34:07.960Z,15.20
2022-09-16T23:36:37.712Z,15.17
2022-09-16T23:39:08.855Z,15.19
2022-09-16T23:41:36.782Z,15.16
2022-09-16T23:44:04.237Z,15.17
2022-09-16T23:46:32.613Z,15.16
2022-09-16T23:49:00.613Z,15.14
2022-09-16T23:51:29.032Z,15.10
2022-09-16T23:53:57.639Z,15.09
2022-09-16T23:56:25.426Z,15.05
2022-09-16T23:58:52.989Z,15.02
